Terminal Aerodrome Forecast
Issued by NWS St Louis, MO

Home | Current Version | Previous Version | Text Only | Print | Product List | Glossary On
Versions: 1 2 3 4 5 6 7 8 9 10 11 12 13 14 15 16 17 18 19 20 21 22 23 24 25 26 27 28 29 30 31 32
000
FTUS43 KLSX 060912 AAA
TAFSTL
TAF AMD
KSTL 060912Z 0609/0712 17006KT 6SM HZ FEW050 SCT250
     FM061000 18008KT 6SM HZ SCT008 SCT250
     FM061300 18008KT P6SM SCT035 SCT250
     FM061800 19012G20KT P6SM SCT040 SCT250=

USA.gov is the U.S. government's official web portal to all federal, state and local government web resources and services.